Time;durP1;ratioP1;P1;durP2;ratioP2;P2;SDS_P1;SDS_P2;PMS_P1;PMS_P2;Temp;Humidity;BMP_temperature;BMP_pressure;BME280_temperature;BME280_humidity;BME280_pressure;Samples;Min_cycle;Max_cycle;Signal;HPM_P1;HPM_P2
2021/10/23 00:00:22;;;;;;;6.32;5.20;;;;;;;;;;10355024;28;20087;-63
2021/10/23 00:05:20;;;;;;;9.48;5.93;;;;;;;;;;10356355;28;20088;-63
2021/10/23 00:10:18;;;;;;;8.60;5.88;;;;;;;;;;10353122;28;20079;-63
2021/10/23 00:15:18;;;;;;;6.93;6.22;;;;;;;;;;10355125;28;20051;-63
2021/10/23 00:20:17;;;;;;;6.63;5.95;;;;;;;;;;10355334;28;20075;-63
2021/10/23 00:25:15;;;;;;;7.40;6.57;;;;;;;;;;10355251;28;20056;-63
2021/10/23 00:30:14;;;;;;;8.98;6.07;;;;;;;;;;10354821;28;20090;-63
2021/10/23 00:35:13;;;;;;;8.02;6.38;;;;;;;;;;10354030;28;20531;-63
2021/10/23 00:40:12;;;;;;;10.15;6.32;;;;;;;;;;10354493;28;20060;-62
2021/10/23 00:45:10;;;;;;;9.10;7.57;;;;;;;;;;10352057;28;20067;-63
2021/10/23 00:50:09;;;;;;;11.50;7.28;;;;;;;;;;10353996;28;20545;-63
2021/10/23 00:55:09;;;;;;;9.55;7.00;;;;;;;;;;10353991;28;20067;-63
2021/10/23 01:00:10;;;;;;;8.57;7.78;;;;;;;;;;10353534;28;20091;-63
2021/10/23 01:05:09;;;;;;;11.63;7.30;;;;;;;;;;10353813;28;20094;-63
2021/10/23 01:10:10;;;;;;;14.15;7.40;;;;;;;;;;10353532;28;20060;-63
2021/10/23 01:15:15;;;;;;;10.50;7.80;;;;;;;;;;10351512;28;20090;-62
2021/10/23 01:20:15;;;;;;;9.45;8.43;;;;;;;;;;10350712;28;20481;-63
2021/10/23 01:25:13;;;;;;;12.13;8.45;;;;;;;;;;10353833;28;20063;-63
2021/10/23 01:30:13;;;;;;;8.57;7.70;;;;;;;;;;10353027;28;20070;-62
2021/10/23 01:35:11;;;;;;;10.93;8.13;;;;;;;;;;10353685;28;20067;-63
2021/10/23 01:40:12;;;;;;;8.77;7.88;;;;;;;;;;10353102;28;20492;-62
2021/10/23 01:45:12;;;;;;;12.68;8.38;;;;;;;;;;10350309;28;20446;-63
2021/10/23 01:50:13;;;;;;;9.73;8.73;;;;;;;;;;10350245;28;20068;-63
2021/10/23 01:55:13;;;;;;;9.43;8.05;;;;;;;;;;10350616;28;20067;-62
2021/10/23 02:00:13;;;;;;;9.77;8.63;;;;;;;;;;10350416;28;20075;-63
2021/10/23 02:05:11;;;;;;;8.75;7.57;;;;;;;;;;10350296;28;20134;-63
2021/10/23 02:10:10;;;;;;;14.88;9.63;;;;;;;;;;10352496;28;20082;-63
2021/10/23 02:15:10;;;;;;;9.73;8.43;;;;;;;;;;10351693;28;20079;-63
2021/10/23 02:20:09;;;;;;;8.60;7.80;;;;;;;;;;10352263;28;20079;-63
2021/10/23 02:25:08;;;;;;;9.60;8.05;;;;;;;;;;10355715;28;20463;-63
2021/10/23 02:30:08;;;;;;;9.20;8.20;;;;;;;;;;10359680;28;20044;-63
2021/10/23 02:35:08;;;;;;;10.27;8.05;;;;;;;;;;10359546;28;20044;-63
2021/10/23 02:40:07;;;;;;;9.27;8.38;;;;;;;;;;10358996;28;20079;-63
2021/10/23 02:45:06;;;;;;;11.73;9.13;;;;;;;;;;10358338;28;20551;-63
2021/10/23 02:50:06;;;;;;;13.23;9.30;;;;;;;;;;10358713;28;20079;-63
2021/10/23 02:55:07;;;;;;;8.35;7.55;;;;;;;;;;10358320;28;20091;-63
2021/10/23 03:00:06;;;;;;;12.10;8.32;;;;;;;;;;10357088;28;20516;-63
2021/10/23 03:05:05;;;;;;;10.23;8.50;;;;;;;;;;10357817;28;20068;-62
2021/10/23 03:10:04;;;;;;;10.43;8.02;;;;;;;;;;10357857;28;20078;-63
2021/10/23 03:15:04;;;;;;;10.48;8.38;;;;;;;;;;10357585;28;20091;-63
2021/10/23 03:20:02;;;;;;;9.07;7.40;;;;;;;;;;10355346;28;20076;-63
2021/10/23 03:25:01;;;;;;;9.07;8.00;;;;;;;;;;10354889;28;20493;-63
2021/10/23 03:29:59;;;;;;;10.10;7.32;;;;;;;;;;10356930;28;20048;-63
2021/10/23 03:35:00;;;;;;;9.63;7.40;;;;;;;;;;10357017;28;20052;-63
2021/10/23 03:39:59;;;;;;;11.30;8.18;;;;;;;;;;10355082;28;20488;-63
2021/10/23 03:44:57;;;;;;;9.93;8.02;;;;;;;;;;10354173;28;20032;-63
2021/10/23 03:49:55;;;;;;;8.35;7.55;;;;;;;;;;10356021;28;20486;-62
2021/10/23 03:54:55;;;;;;;12.30;8.23;;;;;;;;;;10357665;28;20072;-63
2021/10/23 03:59:53;;;;;;;9.10;8.23;;;;;;;;;;10357315;28;20119;-62
2021/10/23 04:04:52;;;;;;;10.35;8.48;;;;;;;;;;10357599;28;20346;-62
2021/10/23 04:09:51;;;;;;;10.55;7.60;;;;;;;;;;10356196;28;20516;-64
2021/10/23 04:14:51;;;;;;;15.23;8.27;;;;;;;;;;10355265;28;20421;-64
2021/10/23 04:19:49;;;;;;;9.35;8.45;;;;;;;;;;10353664;28;20066;-63
2021/10/23 04:24:48;;;;;;;9.10;8.18;;;;;;;;;;10353905;28;20063;-64
2021/10/23 04:29:47;;;;;;;12.73;8.13;;;;;;;;;;10356991;28;20070;-62
2021/10/23 04:34:46;;;;;;;8.82;7.43;;;;;;;;;;10355857;28;20071;-63
2021/10/23 04:39:45;;;;;;;15.15;8.13;;;;;;;;;;10356141;28;20074;-63
2021/10/23 04:44:43;;;;;;;9.75;7.50;;;;;;;;;;10355322;28;20090;-63
2021/10/23 04:49:41;;;;;;;11.40;8.57;;;;;;;;;;10355504;28;20071;-64
2021/10/23 04:54:41;;;;;;;8.50;7.70;;;;;;;;;;10355552;28;20059;-63
2021/10/23 04:59:39;;;;;;;12.38;8.20;;;;;;;;;;10355482;28;20067;-64
2021/10/23 05:04:37;;;;;;;10.00;8.00;;;;;;;;;;10349936;28;20067;-63
2021/10/23 05:09:36;;;;;;;9.48;8.45;;;;;;;;;;10350611;28;20429;-63
2021/10/23 05:14:36;;;;;;;15.68;8.30;;;;;;;;;;10348884;28;20086;-63
2021/10/23 05:19:34;;;;;;;7.85;7.05;;;;;;;;;;10354235;28;20080;-63
2021/10/23 05:24:33;;;;;;;14.68;8.23;;;;;;;;;;10353630;28;20075;-63
2021/10/23 05:29:31;;;;;;;8.65;7.22;;;;;;;;;;10353446;28;20044;-63
2021/10/23 05:34:31;;;;;;;11.35;8.50;;;;;;;;;;10353652;28;20067;-63
2021/10/23 05:39:29;;;;;;;11.48;9.30;;;;;;;;;;10349798;28;20071;-63
2021/10/23 05:44:27;;;;;;;9.82;8.48;;;;;;;;;;10348920;28;20098;-63
2021/10/23 05:49:26;;;;;;;10.40;9.40;;;;;;;;;;10351378;28;20489;-63
2021/10/23 05:54:26;;;;;;;10.25;8.38;;;;;;;;;;10345025;28;20075;-61
2021/10/23 05:59:24;;;;;;;12.93;9.60;;;;;;;;;;10352712;28;20071;-63
2021/10/23 06:04:22;;;;;;;16.13;9.30;;;;;;;;;;10341807;28;20493;-63
2021/10/23 06:09:20;;;;;;;13.85;12.45;;;;;;;;;;10345158;28;20071;-64
2021/10/23 06:14:20;;;;;;;10.40;9.35;;;;;;;;;;10356695;28;20102;-63
2021/10/23 06:19:18;;;;;;;10.35;8.57;;;;;;;;;;10346816;28;20079;-64
2021/10/23 06:24:17;;;;;;;11.90;9.98;;;;;;;;;;10357783;28;20076;-62
2021/10/23 06:29:15;;;;;;;9.68;8.68;;;;;;;;;;10356359;28;20075;-63
2021/10/23 06:34:15;;;;;;;10.85;8.13;;;;;;;;;;10348294;28;20114;-64
2021/10/23 06:39:13;;;;;;;15.93;12.63;;;;;;;;;;10356067;28;20059;-63
2021/10/23 06:44:11;;;;;;;14.43;12.10;;;;;;;;;;10347603;28;20068;-65
2021/10/23 06:49:10;;;;;;;13.95;9.35;;;;;;;;;;10348048;28;20076;-65
2021/10/23 06:54:10;;;;;;;13.30;9.23;;;;;;;;;;10349352;28;20060;-67
2021/10/23 06:59:08;;;;;;;9.25;7.80;;;;;;;;;;10350173;28;20072;-65
2021/10/23 07:04:06;;;;;;;12.30;8.80;;;;;;;;;;10344865;28;20080;-66
2021/10/23 07:09:04;;;;;;;12.45;9.88;;;;;;;;;;10348885;28;20078;-66
2021/10/23 07:14:05;;;;;;;13.40;10.80;;;;;;;;;;10350160;28;20067;-66
2021/10/23 07:19:03;;;;;;;11.75;10.18;;;;;;;;;;10350749;28;20064;-65
2021/10/23 07:24:02;;;;;;;30.55;11.75;;;;;;;;;;10355079;28;20059;-66
2021/10/23 07:29:00;;;;;;;16.88;10.23;;;;;;;;;;10357146;28;20060;-66
2021/10/23 07:34:00;;;;;;;10.15;9.00;;;;;;;;;;10357129;28;20071;-65
2021/10/23 07:38:59;;;;;;;12.65;9.80;;;;;;;;;;10356663;28;20695;-65
2021/10/23 07:43:57;;;;;;;13.02;10.93;;;;;;;;;;10356495;28;20458;-66
2021/10/23 07:48:55;;;;;;;11.50;9.38;;;;;;;;;;10342471;28;20072;-66
2021/10/23 07:53:55;;;;;;;11.65;10.27;;;;;;;;;;10347215;28;20497;-65
2021/10/23 07:58:53;;;;;;;13.27;10.88;;;;;;;;;;10348376;28;20074;-65
2021/10/23 08:03:52;;;;;;;9.10;7.75;;;;;;;;;;10348158;28;20095;-65
2021/10/23 08:08:50;;;;;;;8.35;7.55;;;;;;;;;;10356313;28;20041;-65
2021/10/23 08:13:50;;;;;;;13.90;7.22;;;;;;;;;;10355452;28;20065;-66
2021/10/23 08:18:48;;;;;;;8.98;7.45;;;;;;;;;;10353760;28;20491;-66
2021/10/23 08:23:46;;;;;;;8.10;7.13;;;;;;;;;;10354113;28;20087;-65
2021/10/23 08:28:44;;;;;;;10.75;8.18;;;;;;;;;;10353602;28;20075;-65
2021/10/23 08:33:44;;;;;;;8.43;7.57;;;;;;;;;;10355612;28;20755;-67
2021/10/23 08:38:43;;;;;;;11.00;8.25;;;;;;;;;;10352287;28;20521;-67
2021/10/23 08:43:42;;;;;;;13.43;9.07;;;;;;;;;;10352524;28;20810;-67
2021/10/23 08:48:41;;;;;;;12.70;9.40;;;;;;;;;;10347640;28;20417;-67
2021/10/23 08:53:41;;;;;;;7.88;7.07;;;;;;;;;;10354834;28;20063;-67
2021/10/23 08:58:40;;;;;;;9.50;8.13;;;;;;;;;;10354679;28;20044;-66
2021/10/23 09:03:39;;;;;;;92.20;43.80;;;;;;;;;;10353542;28;20083;-66
2021/10/23 09:08:38;;;;;;;10.82;9.52;;;;;;;;;;10354260;28;20040;-65
2021/10/23 09:13:38;;;;;;;16.80;10.68;;;;;;;;;;10352432;28;20059;-66
2021/10/23 09:18:43;;;;;;;23.48;15.13;;;;;;;;;;10351862;28;20127;-66
2021/10/23 09:23:41;;;;;;;17.75;12.27;;;;;;;;;;10354026;28;20520;-67
2021/10/23 09:28:41;;;;;;;14.90;12.38;;;;;;;;;;10354139;28;20452;-65
2021/10/23 09:33:40;;;;;;;9.73;8.55;;;;;;;;;;10357408;28;20060;-64
2021/10/23 09:38:38;;;;;;;9.55;8.18;;;;;;;;;;10345154;28;20490;-63
2021/10/23 09:43:38;;;;;;;11.10;8.45;;;;;;;;;;10343420;28;20064;-64
2021/10/23 09:48:38;;;;;;;10.75;8.15;;;;;;;;;;10344885;28;20067;-64
2021/10/23 09:53:36;;;;;;;11.02;9.93;;;;;;;;;;10361264;28;20071;-64
2021/10/23 09:58:35;;;;;;;9.25;7.53;;;;;;;;;;10355025;28;20732;-65
2021/10/23 10:03:34;;;;;;;12.32;10.20;;;;;;;;;;10356335;28;20516;-64
2021/10/23 10:08:35;;;;;;;16.13;12.52;;;;;;;;;;10351888;28;20517;-65
2021/10/23 10:13:34;;;;;;;11.90;10.38;;;;;;;;;;10358936;28;20059;-63
2021/10/23 10:18:33;;;;;;;12.30;10.88;;;;;;;;;;10358320;28;20068;-63
2021/10/23 10:23:35;;;;;;;11.95;9.60;;;;;;;;;;10357251;28;20078;-66
2021/10/23 10:28:33;;;;;;;9.93;8.93;;;;;;;;;;10359556;28;20063;-66
2021/10/23 10:33:43;;;;;;;12.88;10.75;;;;;;;;;;10361245;28;20071;-66
2021/10/23 10:38:55;;;;;;;13.90;11.02;;;;;;;;;;10359354;28;20066;-66
2021/10/23 10:44:14;;;;;;;14.77;10.77;;;;;;;;;;10355686;28;20067;-64
2021/10/23 10:49:27;;;;;;;12.65;10.77;;;;;;;;;;10356250;28;20547;-67
2021/10/23 10:54:27;;;;;;;16.40;14.23;;;;;;;;;;10356213;28;20549;-65
2021/10/23 10:59:46;;;;;;;13.25;9.20;;;;;;;;;;10355527;28;20067;-66
2021/10/23 11:04:59;;;;;;;9.77;8.40;;;;;;;;;;10356091;28;20087;-64
2021/10/23 11:10:00;;;;;;;10.73;9.18;;;;;;;;;;10356695;28;20083;-65
2021/10/23 11:14:58;;;;;;;14.75;9.65;;;;;;;;;;10355176;28;20075;-65
2021/10/23 11:20:02;;;;;;;10.30;9.30;;;;;;;;;;10357404;28;20078;-65
2021/10/23 11:25:06;;;;;;;14.43;10.52;;;;;;;;;;10355621;28;20064;-66
2021/10/23 11:30:07;;;;;;;7.85;6.97;;;;;;;;;;10353983;28;20062;-66
2021/10/23 11:35:06;;;;;;;9.07;7.55;;;;;;;;;;10357068;28;20055;-66
2021/10/23 11:40:08;;;;;;;11.25;8.75;;;;;;;;;;10351339;28;20071;-64
2021/10/23 11:45:08;;;;;;;10.23;8.20;;;;;;;;;;10349037;28;20079;-65
2021/10/23 11:50:27;;;;;;;11.32;7.57;;;;;;;;;;10334073;28;20079;-64
2021/10/23 11:55:35;;;;;;;9.27;7.95;;;;;;;;;;10341979;28;20059;-66
2021/10/23 12:00:35;;;;;;;12.32;10.88;;;;;;;;;;10345557;28;20071;-64
2021/10/23 12:05:41;;;;;;;8.48;7.68;;;;;;;;;;10341971;28;20071;-66
2021/10/23 12:10:58;;;;;;;9.20;8.25;;;;;;;;;;10342493;28;20506;-64
2021/10/23 12:16:01;;;;;;;9.57;7.32;;;;;;;;;;10339624;28;20522;-65
2021/10/23 12:21:16;;;;;;;8.40;7.60;;;;;;;;;;10343545;28;20057;-65
2021/10/23 12:26:14;;;;;;;7.50;6.80;;;;;;;;;;10348005;28;20150;-64
2021/10/23 12:31:14;;;;;;;8.02;7.22;;;;;;;;;;10350693;28;20056;-65
2021/10/23 12:36:16;;;;;;;7.13;6.43;;;;;;;;;;10349593;28;20075;-66
2021/10/23 12:41:14;;;;;;;7.80;6.65;;;;;;;;;;10350721;28;20528;-65
2021/10/23 12:46:14;;;;;;;9.50;7.93;;;;;;;;;;10350920;28;20068;-65
2021/10/23 12:51:14;;;;;;;8.27;6.95;;;;;;;;;;10347974;28;20159;-67
2021/10/23 12:56:12;;;;;;;8.15;7.25;;;;;;;;;;10354127;28;20079;-66
2021/10/23 13:01:10;;;;;;;8.57;6.70;;;;;;;;;;10354434;28;20059;-65
2021/10/23 13:06:09;;;;;;;9.75;7.55;;;;;;;;;;10350872;28;20063;-65
2021/10/23 13:11:11;;;;;;;8.65;6.57;;;;;;;;;;10353666;28;20063;-66
2021/10/23 13:16:10;;;;;;;6.80;5.95;;;;;;;;;;10350715;28;20067;-65
2021/10/23 13:21:09;;;;;;;6.40;5.80;;;;;;;;;;10351531;28;20135;-65
2021/10/23 13:26:10;;;;;;;7.82;5.88;;;;;;;;;;10353331;28;20117;-65
2021/10/23 13:31:11;;;;;;;11.95;6.88;;;;;;;;;;10353971;28;20036;-65
2021/10/23 13:36:09;;;;;;;8.27;7.47;;;;;;;;;;10352797;28;20040;-65
2021/10/23 13:41:09;;;;;;;7.63;6.90;;;;;;;;;;10352831;28;20051;-65
2021/10/23 13:46:08;;;;;;;11.95;9.73;;;;;;;;;;10353004;28;20078;-65
2021/10/23 13:51:08;;;;;;;13.25;9.98;;;;;;;;;;10353057;28;20135;-65
2021/10/23 13:56:06;;;;;;;8.82;7.72;;;;;;;;;;10352535;28;20062;-64
2021/10/23 14:01:04;;;;;;;17.17;15.43;;;;;;;;;;10352658;28;20166;-65
2021/10/23 14:06:03;;;;;;;14.85;13.35;;;;;;;;;;10351741;28;20530;-65
2021/10/23 14:11:04;;;;;;;15.95;14.25;;;;;;;;;;10352165;28;20032;-66
2021/10/23 14:16:02;;;;;;;17.38;15.55;;;;;;;;;;10351129;28;20122;-65
2021/10/23 14:21:03;;;;;;;20.05;14.98;;;;;;;;;;10357301;28;21198;-65
2021/10/23 14:26:03;;;;;;;23.48;19.67;;;;;;;;;;10359915;28;20076;-66
2021/10/23 14:31:01;;;;;;;18.25;15.68;;;;;;;;;;10358035;28;20063;-65
2021/10/23 14:36:00;;;;;;;19.52;16.02;;;;;;;;;;10357517;28;20048;-65
2021/10/23 14:40:58;;;;;;;17.63;14.00;;;;;;;;;;10359553;28;20071;-65
2021/10/23 14:45:58;;;;;;;18.40;16.25;;;;;;;;;;10359309;28;20063;-65
2021/10/23 14:50:56;;;;;;;15.38;11.02;;;;;;;;;;10359176;28;20071;-65
2021/10/23 14:55:55;;;;;;;12.40;11.07;;;;;;;;;;10358354;28;20071;-65
2021/10/23 15:00:54;;;;;;;19.20;15.85;;;;;;;;;;10359085;28;20119;-65
2021/10/23 15:05:54;;;;;;;31.77;22.95;;;;;;;;;;10358255;28;20067;-65
2021/10/23 15:10:52;;;;;;;16.50;14.85;;;;;;;;;;10356336;28;20458;-65
2021/10/23 15:15:51;;;;;;;16.75;12.70;;;;;;;;;;10357471;28;20086;-65
2021/10/23 15:20:49;;;;;;;18.75;16.67;;;;;;;;;;10356907;28;20529;-64
2021/10/23 15:25:50;;;;;;;20.92;18.65;;;;;;;;;;10357540;28;20082;-64
2021/10/23 15:30:49;;;;;;;18.30;16.40;;;;;;;;;;10355060;28;20059;-64
2021/10/23 15:35:52;;;;;;;18.88;14.45;;;;;;;;;;10357297;28;20060;-66
2021/10/23 15:41:03;;;;;;;20.10;16.63;;;;;;;;;;10355530;28;20055;-66
2021/10/23 15:46:01;;;;;;;20.25;18.08;;;;;;;;;;10356625;28;20074;-65
2021/10/23 15:50:59;;;;;;;17.98;15.23;;;;;;;;;;10356694;28;20063;-65
2021/10/23 15:55:59;;;;;;;20.27;16.70;;;;;;;;;;10355887;28;20078;-64
2021/10/23 16:00:57;;;;;;;22.88;19.70;;;;;;;;;;10355574;28;20067;-63
2021/10/23 16:05:56;;;;;;;22.67;18.00;;;;;;;;;;10349498;28;20071;-65
2021/10/23 16:10:54;;;;;;;24.38;18.38;;;;;;;;;;10349942;28;20074;-66
2021/10/23 16:15:54;;;;;;;24.83;19.67;;;;;;;;;;10353415;28;20052;-65
2021/10/23 16:20:52;;;;;;;34.95;30.63;;;;;;;;;;10352852;28;20102;-64
2021/10/23 16:25:51;;;;;;;13.15;10.65;;;;;;;;;;10340223;28;20068;-65
2021/10/23 16:30:49;;;;;;;13.65;11.32;;;;;;;;;;10349211;28;20071;-63
2021/10/23 16:35:49;;;;;;;26.95;21.95;;;;;;;;;;10343123;28;20072;-63
2021/10/23 16:40:47;;;;;;;31.17;24.83;;;;;;;;;;10337161;28;20079;-62
2021/10/23 16:45:45;;;;;;;17.45;15.57;;;;;;;;;;10333735;28;20143;-63
2021/10/23 16:50:44;;;;;;;14.73;12.95;;;;;;;;;;10350975;28;20075;-65
2021/10/23 16:55:43;;;;;;;19.58;17.08;;;;;;;;;;10344215;28;20513;-64
2021/10/23 17:00:42;;;;;;;13.95;12.15;;;;;;;;;;10352334;28;20471;-64
2021/10/23 17:05:41;;;;;;;14.30;12.43;;;;;;;;;;10350010;28;20153;-65
2021/10/23 17:10:39;;;;;;;15.93;13.77;;;;;;;;;;10347566;28;20149;-66
2021/10/23 17:15:39;;;;;;;22.48;17.73;;;;;;;;;;10353269;28;20126;-65
2021/10/23 17:20:39;;;;;;;17.15;13.45;;;;;;;;;;10345543;28;20470;-65
2021/10/23 17:25:38;;;;;;;26.40;18.73;;;;;;;;;;10353710;28;20437;-65
2021/10/23 17:30:36;;;;;;;16.50;13.45;;;;;;;;;;10354179;28;20451;-65
2021/10/23 17:35:36;;;;;;;17.27;15.25;;;;;;;;;;10350624;28;20083;-65
2021/10/23 17:40:34;;;;;;;24.27;16.67;;;;;;;;;;10353045;28;20081;-66
2021/10/23 17:45:33;;;;;;;20.85;14.88;;;;;;;;;;10350578;28;20068;-65
2021/10/23 17:50:36;;;;;;;30.27;21.45;;;;;;;;;;10353943;28;20068;-65
2021/10/23 17:55:34;;;;;;;26.50;17.15;;;;;;;;;;10350243;28;20059;-65
2021/10/23 18:00:33;;;;;;;23.17;15.35;;;;;;;;;;10353050;28;21262;-65
2021/10/23 18:05:31;;;;;;;14.90;10.50;;;;;;;;;;10351848;28;20520;-64
2021/10/23 18:10:31;;;;;;;10.43;7.65;;;;;;;;;;10357256;28;20095;-64
2021/10/23 18:15:33;;;;;;;17.73;12.10;;;;;;;;;;10358908;28;20083;-63
2021/10/23 18:20:32;;;;;;;23.35;15.40;;;;;;;;;;10359162;28;20068;-65
2021/10/23 18:25:32;;;;;;;21.60;15.13;;;;;;;;;;10360434;28;20079;-65
2021/10/23 18:30:31;;;;;;;14.52;11.25;;;;;;;;;;10358779;28;20076;-64
2021/10/23 18:35:31;;;;;;;11.18;8.02;;;;;;;;;;10353090;28;20055;-65
2021/10/23 18:40:29;;;;;;;7.57;6.65;;;;;;;;;;10355484;28;20072;-65
2021/10/23 18:45:29;;;;;;;10.23;8.70;;;;;;;;;;10357158;28;20072;-65
2021/10/23 18:50:28;;;;;;;9.38;7.95;;;;;;;;;;10354263;28;20116;-65
2021/10/23 18:55:26;;;;;;;15.18;10.25;;;;;;;;;;10356541;28;20075;-65
2021/10/23 19:00:25;;;;;;;15.02;10.68;;;;;;;;;;10355998;28;20071;-64
2021/10/23 19:05:26;;;;;;;14.75;10.30;;;;;;;;;;10355336;28;20091;-63
2021/10/23 19:10:25;;;;;;;10.30;6.93;;;;;;;;;;10354751;28;20068;-64
2021/10/23 19:15:23;;;;;;;9.18;7.28;;;;;;;;;;10355254;28;20080;-65
2021/10/23 19:20:22;;;;;;;8.85;6.53;;;;;;;;;;10355717;28;20074;-64
2021/10/23 19:25:21;;;;;;;10.15;6.68;;;;;;;;;;10358843;28;20067;-65
2021/10/23 19:30:21;;;;;;;13.95;8.95;;;;;;;;;;10358422;28;20074;-65
2021/10/23 19:35:19;;;;;;;12.15;8.98;;;;;;;;;;10356773;28;20071;-65
2021/10/23 19:40:18;;;;;;;44.75;26.70;;;;;;;;;;10352849;28;20068;-65
2021/10/23 19:45:17;;;;;;;12.45;8.65;;;;;;;;;;10349193;28;20089;-65
2021/10/23 19:50:16;;;;;;;12.35;6.22;;;;;;;;;;10349656;28;20068;-64
2021/10/23 19:55:14;;;;;;;10.63;6.72;;;;;;;;;;10357464;28;20071;-64
2021/10/23 20:00:14;;;;;;;13.30;7.72;;;;;;;;;;10357354;28;20613;-64
2021/10/23 20:05:13;;;;;;;10.27;5.35;;;;;;;;;;10353392;28;20076;-64
2021/10/23 20:10:12;;;;;;;7.18;4.82;;;;;;;;;;10355039;28;20075;-64
2021/10/23 20:15:10;;;;;;;7.38;4.70;;;;;;;;;;10356890;28;20076;-64
2021/10/23 20:20:11;;;;;;;10.13;5.68;;;;;;;;;;10352615;28;20185;-65
2021/10/23 20:25:11;;;;;;;14.63;8.02;;;;;;;;;;10350645;28;20060;-64
2021/10/23 20:30:09;;;;;;;7.35;4.95;;;;;;;;;;10354516;28;20494;-64
2021/10/23 20:35:08;;;;;;;16.67;9.23;;;;;;;;;;10352957;28;20063;-64
2021/10/23 20:40:07;;;;;;;9.27;6.78;;;;;;;;;;10355753;28;20044;-64
2021/10/23 20:45:08;;;;;;;10.00;5.10;;;;;;;;;;10356196;28;20040;-64
2021/10/23 20:50:07;;;;;;;8.93;4.38;;;;;;;;;;10345211;28;20080;-62
2021/10/23 20:55:06;;;;;;;7.65;4.38;;;;;;;;;;10349062;28;20067;-63
2021/10/23 21:00:04;;;;;;;9.57;5.13;;;;;;;;;;10352374;28;20079;-64
2021/10/23 21:05:04;;;;;;;13.07;7.00;;;;;;;;;;10345302;28;20159;-65
2021/10/23 21:10:04;;;;;;;9.75;4.80;;;;;;;;;;10348126;28;20076;-64
2021/10/23 21:15:03;;;;;;;6.20;4.00;;;;;;;;;;10344928;28;20076;-64
2021/10/23 21:20:02;;;;;;;7.00;4.40;;;;;;;;;;10354536;28;20040;-63
2021/10/23 21:25:02;;;;;;;11.43;4.22;;;;;;;;;;10353209;28;20071;-64
2021/10/23 21:30:00;;;;;;;8.52;5.00;;;;;;;;;;10352398;28;20072;-64
2021/10/23 21:34:59;;;;;;;6.10;4.43;;;;;;;;;;10354347;28;20078;-64
2021/10/23 21:39:57;;;;;;;5.88;4.45;;;;;;;;;;10355101;28;20051;-64
2021/10/23 21:44:57;;;;;;;5.13;4.47;;;;;;;;;;10351905;28;20523;-64
2021/10/23 21:49:55;;;;;;;8.07;4.63;;;;;;;;;;10352105;28;20067;-63
2021/10/23 21:54:53;;;;;;;6.55;4.78;;;;;;;;;;10355202;28;20051;-65
2021/10/23 21:59:52;;;;;;;9.05;5.10;;;;;;;;;;10353601;28;20067;-63
2021/10/23 22:04:51;;;;;;;8.98;5.22;;;;;;;;;;10354307;28;20063;-63
2021/10/23 22:09:52;;;;;;;7.75;4.70;;;;;;;;;;10353246;28;20070;-64
2021/10/23 22:14:50;;;;;;;9.13;5.07;;;;;;;;;;10353747;28;20082;-63
2021/10/23 22:19:49;;;;;;;10.05;6.05;;;;;;;;;;10353149;28;20064;-63
2021/10/23 22:24:49;;;;;;;7.95;4.68;;;;;;;;;;10352684;28;20040;-63
2021/10/23 22:29:48;;;;;;;7.43;5.25;;;;;;;;;;10353639;28;20076;-63
2021/10/23 22:34:46;;;;;;;7.70;5.25;;;;;;;;;;10352523;28;20051;-65
2021/10/23 22:39:46;;;;;;;7.35;5.25;;;;;;;;;;10354807;28;20036;-64
2021/10/23 22:44:46;;;;;;;9.18;6.25;;;;;;;;;;10358601;28;20526;-64
2021/10/23 22:49:44;;;;;;;6.78;6.07;;;;;;;;;;10356686;28;20102;-64
2021/10/23 22:54:43;;;;;;;8.88;7.43;;;;;;;;;;10359894;28;20509;-65
2021/10/23 22:59:41;;;;;;;8.98;6.72;;;;;;;;;;10360515;28;20044;-66
2021/10/23 23:04:41;;;;;;;9.48;6.80;;;;;;;;;;10360067;28;20063;-64
2021/10/23 23:09:40;;;;;;;10.90;7.15;;;;;;;;;;10357625;28;20071;-65
2021/10/23 23:14:39;;;;;;;9.10;7.30;;;;;;;;;;10358983;28;20087;-64
2021/10/23 23:19:37;;;;;;;10.52;7.82;;;;;;;;;;10359956;28;20043;-64
2021/10/23 23:24:37;;;;;;;9.23;7.30;;;;;;;;;;10359453;28;20051;-63
2021/10/23 23:29:35;;;;;;;12.57;8.38;;;;;;;;;;10359306;28;20078;-64
2021/10/23 23:34:33;;;;;;;12.20;8.35;;;;;;;;;;10358695;28;20078;-65
2021/10/23 23:39:32;;;;;;;8.93;7.32;;;;;;;;;;10358318;28;20036;-64
2021/10/23 23:44:31;;;;;;;9.70;7.28;;;;;;;;;;10358593;28;20074;-64
2021/10/23 23:49:29;;;;;;;11.75;8.00;;;;;;;;;;10358843;28;20079;-64
2021/10/23 23:54:28;;;;;;;8.10;7.20;;;;;;;;;;10358087;28;20575;-65
2021/10/23 23:59:26;;;;;;;11.27;7.30;;;;;;;;;;10355404;28;20095;-64
